Terminal Aerodrome Forecast
Issued by NWS

Home | Current Version | Previous Version | Text Only | Print | Product List | Glossary On
Versions: 1 2 3 4 5 6 7 8 9 10 11 12 13 14 15 16 17 18 19 20 21 22 23 24 25 26
000
FTUS41 KBOX 032321
TAFFMH
TAF
KFMH 032321Z 0400/0424 20014KT P6SM SCT120
     FM040100 20006KT P6SM BKN110
     FM041300 21008KT P6SM FEW250
     FM041900 21012KT P6SM SKC
      AMD NOT SKED=

USA.gov is the U.S. government's official web portal to all federal, state and local government web resources and services.